METAR rapporter

 

EKAH - Tirstrup (civ/Mi, Denmark
Afstand fra stationen: SSV 25km
Opdateret: 27/11/2021 23:50
Let regn, Mest skyet
Let regn, Mest skyet
 Vind fra Ø
Vind: Ø 6 km/h
Temperatur: 3°C
Dugpunkt: 3°C
Fugtighed: 100%
Barometer: 995 hPa
Oversigt: Let regn
Skydække: Mest skyet
Sigtbarhed: 7 km
Skyhøjde: Mest skyet 427 m
Mest skyet 2103 m
2021/11/27 22:50 EKAH 272250Z AUTO 08003KT 7000 -RA BKN014/// BKN069/// 03/03 Q0995
EKYT - Alborg, Denmark
Afstand fra stationen: NV 91km
Opdateret: 27/11/2021 23:50
Let finregn, Overskyet
Let finregn, Overskyet
 Vind fra NØ
Vind: NØ 15 km/h
Temperatur: 2°C
Kuldeindeks: -2°C
Dugpunkt: 1°C
Fugtighed: 93%
Barometer: 996 hPa
Oversigt: Let finregn
Skydække: Overskyet
Sigtbarhed: 10 km
Skyhøjde: Mest skyet 213 m
Mest skyet 1128 m
Overskyet 2621 m
2021/11/27 22:50 EKYT 272250Z AUTO 04008KT 9999 -DZ BKN007/// BKN037/// OVC086/// 02/01 Q0996
EKKA - Karup (dan-Afb), Denmark
Afstand fra stationen: V 107km
Opdateret: 27/11/2021 23:50
Let regn, Overskyet
Let regn, Overskyet
 Vind fra N
Vind: N 6 km/h
Temperatur: 0°C
Dugpunkt: 0°C
Fugtighed: 100%
Barometer: 995 hPa
Oversigt: Let regn
Skydække: Overskyet
Sigtbarhed: 10 km
Skyhøjde: Mest skyet 91 m
Overskyet 2042 m
2021/11/27 22:50 EKKA 272250Z AUTO 01003KT 9999 -RA BKN003/// OVC067/// 00/00 Q0995
 
EKOD - Odense/Beldringe, Denmark
Afstand fra stationen: SSV 116km
Opdateret: 27/11/2021 14:50
Ikke opdateret
Mest skyet
Mest skyet
 Vind fra ØNØ
Vind: ØNØ 20 km/h
Temperatur: 4°C
Kuldeindeks: -1°C
Dugpunkt: 3°C
Fugtighed: 93%
Barometer: 993 hPa
Skydække: Mest skyet
Sigtbarhed: 10 km
Skyhøjde: Få skyer 396 m
Mest skyet 792 m
Mest skyet 2896 m
2021/11/27 13:50 EKOD 271350Z 07011KT 9999 FEW013 BKN026 BKN095 04/03 Q0993
EKBI - Billund Airport, Denmark
Afstand fra stationen: SV 134km
Opdateret: 27/11/2021 23:50
Let regn, Byger, Overskyet
Let regn, Byger, Overskyet
 Vind fra N
Vind: N 11 km/h
Temperatur: 1°C
Kuldeindeks: -2°C
Dugpunkt: 1°C
Fugtighed: 100%
Barometer: 995 hPa
Oversigt: Let regn, Byger
Skydække: Overskyet
Sigtbarhed: 10 km
Skyhøjde: Få skyer 122 m
Overskyet 2103 m
2021/11/27 22:50 EKBI 272250Z AUTO 36006KT 9999 -SHRA FEW004/// OVC069/// 01/01 Q0995
EKCH - Copenhagen/Kastr, Denmark
Afstand fra stationen: SØ 148km
Opdateret: 27/11/2021 23:50
Let finregn, Overskyet
Let finregn, Overskyet
 Vind fra ØNØ
Vind: ØNØ 11 km/h
Temperatur: 3°C
Kuldeindeks: 0°C
Dugpunkt: 2°C
Fugtighed: 93%
Barometer: 995 hPa
Oversigt: Let finregn
Skydække: Overskyet
Sigtbarhed: 10 km
Skyhøjde: Overskyet 1158 m
2021/11/27 22:50 EKCH 272250Z AUTO 07006KT 9999 -DZ OVC038/// 03/02 Q0995 TEMPO 4000 SHRASN BKN008 BKN020CB